Acton, Montana
Current Conditions -  °F | °C
As of 4:53 PM on Saturday 20 Dec 2014 (Local Time) from KBIL Reporting Station
Broken Clouds Broken Clouds  
Wind Chill: -2°   Ceiling: 20000
Heat Index:   Visibility: 10mi
Dew Point: -4°   Wind: 9mph
Humidity: 64%   Direction: 200°SSW
Pressure: 29.82"   Gusts: NA
Location:  45.93°N, 108.69°W
Report Text: KBIL 202353Z 20008KT 10SM SCT090 BKN200 02/M04 A2982 RMK AO2 SLP119 T00221039 10039 20011 58008
Loading
Personal Weather Stations






























Interactive Weather Map New forecast layout! Learn more

10-Day Weather Forecast

Advertisements
Track Severe Weather on mobile